createdAt,value
2023-01-08T00:02:03.910Z,101479.16
2023-01-08T00:04:30.897Z,101459.59
2023-01-08T00:06:57.903Z,101402.97
2023-01-08T00:09:24.915Z,101460.31
2023-01-08T00:11:51.894Z,101435.44
2023-01-08T00:14:18.961Z,101454.09
2023-01-08T00:16:46.072Z,101470.94
2023-01-08T00:19:13.634Z,101472.09
2023-01-08T00:21:40.664Z,101458.59
2023-01-08T00:24:07.822Z,101471.41
2023-01-08T00:26:34.862Z,101435.78
2023-01-08T00:29:01.861Z,101477.25
2023-01-08T00:31:28.960Z,101457.19
2023-01-08T00:33:55.994Z,101484.72
2023-01-08T00:36:23.005Z,101484.47
2023-01-08T00:38:50.224Z,101465.75
2023-01-08T00:41:17.679Z,101486.19
2023-01-08T00:43:44.700Z,101483.50
2023-01-08T00:46:11.855Z,101345.19
2023-01-08T00:48:39.194Z,101464.22
2023-01-08T00:51:08.322Z,101432.72
2023-01-08T00:53:35.980Z,101459.69
2023-01-08T00:56:05.076Z,101476.34
2023-01-08T00:58:32.197Z,101480.63
2023-01-08T01:00:59.567Z,101475.38
2023-01-08T01:03:26.783Z,101487.09
2023-01-08T01:06:04.835Z,101480.00
2023-01-08T01:08:32.079Z,101464.88
2023-01-08T01:10:59.107Z,101442.78
2023-01-08T01:13:26.187Z,101480.84
2023-01-08T01:16:00.389Z,101478.97
2023-01-08T01:18:27.980Z,101437.53
2023-01-08T01:20:55.326Z,101453.31
2023-01-08T01:23:22.271Z,101475.50
2023-01-08T01:25:49.260Z,101469.19
2023-01-08T01:28:16.456Z,101477.00
2023-01-08T01:30:43.667Z,101457.59
2023-01-08T01:33:10.663Z,101450.66
2023-01-08T01:35:37.719Z,101434.25
2023-01-08T01:38:04.686Z,101458.34
2023-01-08T01:40:31.673Z,101415.19
2023-01-08T01:42:58.661Z,101439.53
2023-01-08T01:45:28.862Z,101458.84
2023-01-08T01:48:03.988Z,101477.88
2023-01-08T01:50:36.917Z,101476.97
2023-01-08T01:53:14.788Z,101480.13
2023-01-08T01:55:43.764Z,101373.69
2023-01-08T01:58:17.242Z,101480.91
2023-01-08T02:00:44.941Z,101484.19
2023-01-08T02:03:14.301Z,101483.75
2023-01-08T02:05:59.386Z,101470.44
2023-01-08T02:08:44.652Z,101474.47
2023-01-08T02:11:17.910Z,101476.00
2023-01-08T02:13:55.466Z,101467.69
2023-01-08T02:16:45.921Z,101486.84
2023-01-08T02:20:05.430Z,101476.72
2023-01-08T02:22:40.412Z,101482.16
2023-01-08T02:25:54.723Z,101486.25
2023-01-08T02:28:22.873Z,101489.13
2023-01-08T02:30:50.251Z,101486.81
2023-01-08T02:33:17.273Z,101483.44
2023-01-08T02:35:55.873Z,101467.34
2023-01-08T02:38:24.352Z,101489.47
2023-01-08T02:41:04.662Z,101468.91
2023-01-08T02:43:46.092Z,101468.66
2023-01-08T02:46:23.618Z,101483.91
2023-01-08T02:48:57.180Z,101488.88
2023-01-08T02:51:43.263Z,101490.13
2023-01-08T02:54:18.063Z,101495.13
2023-01-08T02:56:49.890Z,101460.19
2023-01-08T02:59:19.580Z,101441.19
2023-01-08T03:01:47.465Z,101474.47
2023-01-08T03:04:19.016Z,101480.78
2023-01-08T03:06:46.820Z,101481.59
2023-01-08T03:09:15.788Z,101477.94
2023-01-08T03:11:58.617Z,101474.75
2023-01-08T03:14:33.907Z,101483.13
2023-01-08T03:17:28.888Z,101457.78
2023-01-08T03:20:01.791Z,101442.16
2023-01-08T03:22:33.309Z,101389.81
2023-01-08T03:25:03.199Z,101465.50
2023-01-08T03:27:33.556Z,101488.94
2023-01-08T03:30:00.726Z,101497.94
2023-01-08T03:32:31.203Z,101477.63
2023-01-08T03:35:00.748Z,101469.75
2023-01-08T03:37:34.546Z,101468.13
2023-01-08T03:40:08.198Z,101491.16
2023-01-08T03:42:35.321Z,101495.25
2023-01-08T03:45:03.115Z,101496.56
2023-01-08T03:47:33.051Z,101474.44
2023-01-08T03:50:08.300Z,101497.13
2023-01-08T03:52:35.329Z,101495.75
2023-01-08T03:55:02.444Z,101489.06
2023-01-08T03:57:30.677Z,101504.16
2023-01-08T03:59:57.683Z,101485.69
2023-01-08T04:02:24.806Z,101501.34
2023-01-08T04:04:51.940Z,101500.47
2023-01-08T04:07:18.900Z,101508.59
2023-01-08T04:09:45.967Z,101506.09
2023-01-08T04:12:13.290Z,101462.56
2023-01-08T04:14:40.310Z,101496.34
2023-01-08T04:17:07.331Z,101493.03
2023-01-08T04:19:34.347Z,101457.38
2023-01-08T04:22:01.295Z,101498.38
2023-01-08T04:24:28.259Z,101458.53
2023-01-08T04:26:55.246Z,101455.06
2023-01-08T04:29:22.258Z,101393.03
2023-01-08T04:31:49.241Z,101496.13
2023-01-08T04:34:16.225Z,101472.25
2023-01-08T04:36:43.261Z,101487.09
2023-01-08T04:39:11.851Z,101497.50
2023-01-08T04:41:38.868Z,101490.94
2023-01-08T04:44:05.850Z,101487.03
2023-01-08T04:46:32.872Z,101491.53
2023-01-08T04:48:59.861Z,101473.91
2023-01-08T04:51:26.908Z,101488.03
2023-01-08T04:53:53.925Z,101485.34
2023-01-08T04:56:20.965Z,101388.28
2023-01-08T04:58:48.059Z,101485.47
2023-01-08T05:01:26.136Z,101497.75
2023-01-08T05:04:02.214Z,101476.84
2023-01-08T05:06:30.737Z,101483.84
2023-01-08T05:08:58.348Z,101279.28
2023-01-08T05:11:25.752Z,101471.25
2023-01-08T05:13:53.643Z,101455.25
2023-01-08T05:16:21.440Z,101476.94
2023-01-08T05:18:49.136Z,101487.06
2023-01-08T05:21:16.571Z,101491.47
2023-01-08T05:23:46.858Z,101490.78
2023-01-08T05:26:14.627Z,101487.56
2023-01-08T05:28:41.668Z,101488.28
2023-01-08T05:31:09.298Z,101480.97
2023-01-08T05:33:36.323Z,101481.66
2023-01-08T05:36:11.100Z,101483.00
2023-01-08T05:38:38.763Z,101488.47
2023-01-08T05:41:06.992Z,101490.63
2023-01-08T05:43:34.645Z,101471.41
2023-01-08T05:46:03.147Z,101319.25
2023-01-08T05:48:31.986Z,101458.78
2023-01-08T05:50:58.942Z,101478.00
2023-01-08T05:53:26.018Z,101479.69
2023-01-08T05:55:52.975Z,101471.09
2023-01-08T05:58:20.073Z,101444.56
2023-01-08T06:00:47.122Z,101445.88
2023-01-08T06:03:14.137Z,101471.00
2023-01-08T06:05:41.204Z,101473.69
2023-01-08T06:08:08.811Z,101481.47
2023-01-08T06:10:38.221Z,101448.47
2023-01-08T06:13:09.655Z,101472.50
2023-01-08T06:15:40.217Z,101472.97
2023-01-08T06:18:07.481Z,101376.63
2023-01-08T06:20:39.403Z,101479.31
2023-01-08T06:23:06.389Z,101430.16
2023-01-08T06:25:33.389Z,101485.59
2023-01-08T06:28:00.487Z,101483.69
2023-01-08T06:30:27.502Z,101476.19
2023-01-08T06:32:58.874Z,101460.59
2023-01-08T06:35:27.111Z,101490.31
2023-01-08T06:37:57.516Z,101468.50
2023-01-08T06:40:24.825Z,101505.31
2023-01-08T06:42:51.772Z,101503.72
2023-01-08T06:45:18.941Z,101509.44
2023-01-08T06:47:46.026Z,101476.00
2023-01-08T06:50:13.051Z,101494.59
2023-01-08T06:52:40.086Z,101486.91
2023-01-08T06:55:07.382Z,101503.63
2023-01-08T06:57:34.376Z,101496.69
2023-01-08T07:00:01.332Z,101503.72
2023-01-08T07:02:31.491Z,101501.94
2023-01-08T07:04:58.632Z,101509.81
2023-01-08T07:07:25.602Z,101496.78
2023-01-08T07:09:52.555Z,101493.72
2023-01-08T07:12:19.538Z,101497.31
2023-01-08T07:14:46.575Z,101426.56
2023-01-08T07:17:13.548Z,101522.63
2023-01-08T07:19:43.555Z,101524.03
2023-01-08T07:22:10.523Z,101516.25
2023-01-08T07:24:37.513Z,101523.94
2023-01-08T07:27:04.519Z,101501.69
2023-01-08T07:29:31.510Z,101521.84
2023-01-08T07:31:58.495Z,101526.69
2023-01-08T07:34:25.517Z,101466.38
2023-01-08T07:36:52.525Z,101538.81
2023-01-08T07:39:19.508Z,101540.34
2023-01-08T07:41:46.596Z,101439.38
2023-01-08T07:44:13.675Z,101539.16
2023-01-08T07:46:40.757Z,101537.03
2023-01-08T07:49:08.006Z,101527.00
2023-01-08T07:51:35.109Z,101549.41
2023-01-08T07:54:02.080Z,101530.88
2023-01-08T07:56:29.111Z,101552.81
2023-01-08T07:58:56.664Z,101555.31
2023-01-08T08:01:24.277Z,101526.38
2023-01-08T08:03:51.285Z,101552.50
2023-01-08T08:06:18.385Z,101555.56
2023-01-08T08:08:45.700Z,101558.31
2023-01-08T08:11:12.940Z,101522.72
2023-01-08T08:13:44.869Z,101545.63
2023-01-08T08:16:12.947Z,101452.53
2023-01-08T08:18:40.123Z,101502.88
2023-01-08T08:21:07.600Z,101531.88
2023-01-08T08:23:36.599Z,101551.38
2023-01-08T08:26:04.729Z,101542.75
2023-01-08T08:28:31.690Z,101514.44
2023-01-08T08:30:58.747Z,101524.91
2023-01-08T08:33:25.788Z,101516.50
2023-01-08T08:35:52.742Z,101540.56
2023-01-08T08:38:20.780Z,101551.63
2023-01-08T08:40:48.511Z,101540.34
2023-01-08T08:43:15.516Z,101540.19
2023-01-08T08:45:42.492Z,101443.78
2023-01-08T08:48:09.504Z,101521.41
2023-01-08T08:50:36.475Z,101534.91
2023-01-08T08:53:05.426Z,101543.16
2023-01-08T08:55:33.460Z,101494.00
2023-01-08T08:58:06.214Z,101535.25
2023-01-08T09:00:33.354Z,101358.03
2023-01-08T09:03:00.560Z,101531.44
2023-01-08T09:05:27.793Z,101532.66
2023-01-08T09:07:54.753Z,101531.31
2023-01-08T09:10:23.121Z,101533.72
2023-01-08T09:12:50.300Z,101537.94
2023-01-08T09:15:17.426Z,101520.25
2023-01-08T09:17:44.442Z,101507.50
2023-01-08T09:20:12.289Z,101527.50
2023-01-08T09:22:39.285Z,101499.00
2023-01-08T09:25:06.456Z,101528.34
2023-01-08T09:27:33.423Z,101534.13
2023-01-08T09:30:00.423Z,101529.50
2023-01-08T09:32:27.460Z,101530.41
2023-01-08T09:34:54.442Z,101521.88
2023-01-08T09:37:23.401Z,101523.44
2023-01-08T09:39:57.670Z,101510.41
2023-01-08T09:42:31.866Z,101506.59
2023-01-08T09:45:01.961Z,101512.91
2023-01-08T09:47:39.565Z,101525.53
2023-01-08T09:50:13.539Z,101467.78
2023-01-08T09:52:43.472Z,101500.63
2023-01-08T09:55:14.478Z,101499.00
2023-01-08T09:57:42.158Z,101517.47
2023-01-08T10:00:17.630Z,101514.69
2023-01-08T10:02:45.154Z,101513.97
2023-01-08T10:05:17.017Z,101514.50
2023-01-08T10:07:45.235Z,101493.63
2023-01-08T10:10:16.915Z,101512.13
2023-01-08T10:12:44.167Z,101508.50
2023-01-08T10:15:17.423Z,101498.06
2023-01-08T10:18:02.957Z,101499.97
2023-01-08T10:20:30.999Z,101534.47
2023-01-08T10:23:10.065Z,101492.03
2023-01-08T10:25:50.553Z,101439.66
2023-01-08T10:28:26.571Z,101517.38
2023-01-08T10:30:58.880Z,101497.78
2023-01-08T10:33:40.854Z,101509.59
2023-01-08T10:36:10.857Z,101518.53
2023-01-08T10:38:50.814Z,101485.63
2023-01-08T10:41:18.651Z,101458.22
2023-01-08T10:43:52.125Z,101526.28
2023-01-08T10:46:50.975Z,101515.88
2023-01-08T10:49:54.848Z,101519.66
2023-01-08T10:52:28.532Z,101519.47
2023-01-08T10:54:56.130Z,101526.03
2023-01-08T10:57:25.203Z,101526.91
2023-01-08T10:59:52.255Z,101515.53
2023-01-08T11:02:38.423Z,101511.44
2023-01-08T11:05:08.847Z,101427.06
2023-01-08T11:07:36.050Z,101514.31
2023-01-08T11:10:05.067Z,101491.69
2023-01-08T11:12:35.775Z,101526.75
2023-01-08T11:15:05.418Z,101521.38
2023-01-08T11:17:33.885Z,101514.53
2023-01-08T11:20:09.825Z,101513.59
2023-01-08T11:22:36.842Z,101516.50
2023-01-08T11:25:13.941Z,101521.91
2023-01-08T11:27:45.249Z,101519.81
2023-01-08T11:30:21.552Z,101506.50
2023-01-08T11:33:04.836Z,101510.84
2023-01-08T11:35:37.908Z,101505.97
2023-01-08T11:38:07.029Z,101517.75
2023-01-08T11:40:49.514Z,101498.16
2023-01-08T11:43:38.492Z,101509.69
2023-01-08T11:46:50.896Z,101515.59
2023-01-08T11:49:42.483Z,101512.50
2023-01-08T11:52:34.591Z,101509.97
2023-01-08T11:55:07.734Z,101524.91
2023-01-08T11:58:05.429Z,101517.59
2023-01-08T12:00:49.655Z,101512.91
2023-01-08T12:03:31.110Z,101522.22
2023-01-08T12:06:32.137Z,101510.72
2023-01-08T12:09:17.790Z,101514.09
2023-01-08T12:11:57.497Z,101494.47
2023-01-08T12:14:42.965Z,101514.38
2023-01-08T12:17:24.935Z,101517.56
2023-01-08T12:20:14.141Z,101520.94
2023-01-08T12:22:59.536Z,101524.53
2023-01-08T12:25:34.202Z,101517.47
2023-01-08T12:28:10.352Z,101510.44
2023-01-08T12:31:16.270Z,101518.22
2023-01-08T12:33:55.019Z,101503.78
2023-01-08T12:36:30.833Z,101523.03
2023-01-08T12:39:08.661Z,101498.00
2023-01-08T12:41:37.847Z,101525.91
2023-01-08T12:44:10.321Z,101492.22
2023-01-08T12:46:42.297Z,101533.38
2023-01-08T12:49:14.515Z,101534.94
2023-01-08T12:51:48.801Z,101512.78
2023-01-08T12:54:45.629Z,101547.75
2023-01-08T12:57:22.950Z,101548.41
2023-01-08T13:00:47.360Z,101545.19
2023-01-08T13:03:22.723Z,101536.16
2023-01-08T13:05:50.548Z,101525.28
2023-01-08T13:08:36.735Z,101515.38
2023-01-08T13:11:05.527Z,101537.13
2023-01-08T13:13:36.980Z,101538.50
2023-01-08T13:16:17.359Z,101533.94
2023-01-08T13:19:04.798Z,101531.69
2023-01-08T13:21:38.534Z,101501.19
2023-01-08T13:24:44.479Z,101474.91
2023-01-08T13:27:18.895Z,101534.75
2023-01-08T13:29:50.783Z,101516.56
2023-01-08T13:32:48.652Z,101530.25
2023-01-08T13:35:15.837Z,101532.09
2023-01-08T13:37:44.212Z,101517.31
2023-01-08T13:40:46.025Z,101535.63
2023-01-08T13:43:21.556Z,101537.94
2023-01-08T13:46:16.887Z,101550.78
2023-01-08T13:49:19.652Z,101543.28
2023-01-08T13:51:47.658Z,101546.06
2023-01-08T13:54:17.658Z,101554.19
2023-01-08T13:56:54.036Z,101550.66
2023-01-08T13:59:29.782Z,101555.97
2023-01-08T14:01:58.048Z,101564.47
2023-01-08T14:04:25.386Z,101565.25
2023-01-08T14:06:52.690Z,101557.50
2023-01-08T14:09:25.389Z,101568.94
2023-01-08T14:11:56.135Z,101574.06
2023-01-08T14:14:24.545Z,101566.88
2023-01-08T14:16:53.452Z,101567.97
2023-01-08T14:19:24.023Z,101564.56
2023-01-08T14:21:58.336Z,101561.34
2023-01-08T14:24:26.439Z,101569.41
2023-01-08T14:26:54.467Z,101579.53
2023-01-08T14:29:24.287Z,101563.09
2023-01-08T14:31:56.667Z,101577.31
2023-01-08T14:34:27.133Z,101561.41
2023-01-08T14:36:56.250Z,101552.34
2023-01-08T14:39:25.840Z,101569.53
2023-01-08T14:42:13.871Z,101560.44
2023-01-08T14:44:44.504Z,101577.06
2023-01-08T14:47:19.308Z,101563.03
2023-01-08T14:49:53.833Z,101555.94
2023-01-08T14:52:21.360Z,101542.38
2023-01-08T14:55:03.299Z,101559.47
2023-01-08T14:57:31.593Z,101582.44
2023-01-08T15:00:01.862Z,101559.28
2023-01-08T15:02:35.708Z,101580.63
2023-01-08T15:05:24.231Z,101563.28
2023-01-08T15:08:03.864Z,101580.00
2023-01-08T15:10:38.433Z,101581.94
2023-01-08T15:13:08.620Z,101587.72
2023-01-08T15:15:41.783Z,101575.22
2023-01-08T15:18:12.009Z,101579.50
2023-01-08T15:20:39.215Z,101570.28
2023-01-08T15:23:06.191Z,101583.22
2023-01-08T15:25:33.259Z,101590.53
2023-01-08T15:28:03.139Z,101589.53
2023-01-08T15:30:36.762Z,101595.34
2023-01-08T15:33:18.068Z,101561.50
2023-01-08T15:35:46.118Z,101583.75
2023-01-08T15:38:13.804Z,101596.66
2023-01-08T15:40:41.255Z,101593.94
2023-01-08T15:43:13.731Z,101591.44
2023-01-08T15:45:46.630Z,101589.31
2023-01-08T15:48:14.301Z,101586.81
2023-01-08T15:50:43.863Z,101602.38
2023-01-08T15:53:18.887Z,101600.63
2023-01-08T15:55:47.066Z,101590.31
2023-01-08T15:58:15.477Z,101596.13
2023-01-08T16:00:44.628Z,101574.63
2023-01-08T16:03:15.794Z,101602.84
2023-01-08T16:05:42.851Z,101591.72
2023-01-08T16:08:11.131Z,101595.84
2023-01-08T16:10:38.371Z,101569.88
2023-01-08T16:13:05.377Z,101599.44
2023-01-08T16:15:32.372Z,101601.34
2023-01-08T16:17:59.733Z,101598.75
2023-01-08T16:20:26.918Z,101593.63
2023-01-08T16:22:55.057Z,101605.03
2023-01-08T16:25:22.209Z,101540.13
2023-01-08T16:27:49.236Z,101595.81
2023-01-08T16:30:16.711Z,101541.53
2023-01-08T16:32:44.155Z,101570.19
2023-01-08T16:35:11.752Z,101604.72
2023-01-08T16:37:39.479Z,101586.00
2023-01-08T16:40:07.559Z,101574.06
2023-01-08T16:42:34.581Z,101590.28
2023-01-08T16:45:01.635Z,101568.94
2023-01-08T16:47:30.875Z,101582.47
2023-01-08T16:49:57.916Z,101577.94
2023-01-08T16:52:24.948Z,101573.94
2023-01-08T16:54:51.899Z,101572.22
2023-01-08T16:57:18.928Z,101563.28
2023-01-08T16:59:45.981Z,101570.28
2023-01-08T17:02:12.967Z,101577.31
2023-01-08T17:04:40.114Z,101575.59
2023-01-08T17:07:07.425Z,101574.50
2023-01-08T17:09:34.678Z,101554.34
2023-01-08T17:12:01.726Z,101339.63
2023-01-08T17:14:28.931Z,101550.59
2023-01-08T17:16:55.917Z,101550.69
2023-01-08T17:19:23.158Z,101561.59
2023-01-08T17:21:50.818Z,101573.91
2023-01-08T17:24:17.917Z,101581.19
2023-01-08T17:26:45.354Z,101577.38
2023-01-08T17:29:12.528Z,101497.75
2023-01-08T17:31:40.337Z,101481.44
2023-01-08T17:34:12.066Z,101556.81
2023-01-08T17:36:39.392Z,101548.16
2023-01-08T17:39:06.852Z,101559.09
2023-01-08T17:41:54.629Z,101552.50
2023-01-08T17:44:22.677Z,101570.75
2023-01-08T17:46:49.925Z,101551.09
2023-01-08T17:49:17.278Z,101557.91
2023-01-08T17:51:45.999Z,101504.91
2023-01-08T17:54:15.417Z,101585.56
2023-01-08T17:56:43.413Z,101548.00
2023-01-08T17:59:16.088Z,101582.81
2023-01-08T18:01:45.363Z,101587.22
2023-01-08T18:04:16.037Z,101589.63
2023-01-08T18:06:43.526Z,101577.09
2023-01-08T18:09:12.695Z,101598.84
2023-01-08T18:11:41.117Z,101587.50
2023-01-08T18:14:10.418Z,101580.50
2023-01-08T18:16:38.186Z,101590.44
2023-01-08T18:19:05.556Z,101589.31
2023-01-08T18:21:32.762Z,101573.06
2023-01-08T18:23:59.942Z,101600.56
2023-01-08T18:26:27.255Z,101600.25
2023-01-08T18:28:54.312Z,101607.75
2023-01-08T18:31:22.697Z,101608.97
2023-01-08T18:33:51.731Z,101588.28
2023-01-08T18:36:19.667Z,101610.78
2023-01-08T18:38:47.056Z,101586.94
2023-01-08T18:41:36.311Z,101581.13
2023-01-08T18:44:05.569Z,101611.84
2023-01-08T18:46:34.258Z,101605.22
2023-01-08T18:49:01.398Z,101625.63
2023-01-08T18:51:28.682Z,101615.34
2023-01-08T18:53:58.831Z,101641.19
2023-01-08T18:56:34.638Z,101645.28
2023-01-08T18:59:03.560Z,101637.06
2023-01-08T19:01:30.911Z,101637.28
2023-01-08T19:03:58.317Z,101621.38
2023-01-08T19:06:25.793Z,101619.59
2023-01-08T19:08:53.033Z,101614.03
2023-01-08T19:11:20.519Z,101538.00
2023-01-08T19:13:47.575Z,101631.25
2023-01-08T19:16:15.999Z,101635.13
2023-01-08T19:18:43.155Z,101635.84
2023-01-08T19:21:13.584Z,101642.19
2023-01-08T19:23:41.010Z,101614.97
2023-01-08T19:26:08.351Z,101651.28
2023-01-08T19:28:36.090Z,101648.59
2023-01-08T19:31:03.587Z,101657.06
2023-01-08T19:33:30.739Z,101661.56
2023-01-08T19:36:03.266Z,101614.75
2023-01-08T19:38:30.526Z,101650.78
2023-01-08T19:41:00.299Z,101669.06
2023-01-08T19:43:42.492Z,101673.66
2023-01-08T19:46:11.930Z,101682.56
2023-01-08T19:48:40.336Z,101673.66
2023-01-08T19:51:08.813Z,101678.66
2023-01-08T19:53:35.889Z,101672.78
2023-01-08T19:56:08.913Z,101660.22
2023-01-08T19:58:36.153Z,101656.31
2023-01-08T20:01:14.300Z,101665.59
2023-01-08T20:03:42.408Z,101664.28
2023-01-08T20:06:17.438Z,101672.34
2023-01-08T20:08:46.330Z,101642.91
2023-01-08T20:11:15.870Z,101663.03
2023-01-08T20:13:43.561Z,101674.06
2023-01-08T20:16:14.176Z,101681.66
2023-01-08T20:18:41.812Z,101658.19
2023-01-08T20:21:18.339Z,101677.88
2023-01-08T20:23:45.614Z,101675.50
2023-01-08T20:26:18.080Z,101675.63
2023-01-08T20:28:46.079Z,101644.25
2023-01-08T20:31:15.780Z,101670.94
2023-01-08T20:33:43.635Z,101647.03
2023-01-08T20:36:16.760Z,101659.66
2023-01-08T20:38:44.719Z,101661.00
2023-01-08T20:41:12.190Z,101655.41
2023-01-08T20:43:41.045Z,101622.84
2023-01-08T20:46:13.969Z,101656.75
2023-01-08T20:48:47.706Z,101662.00
2023-01-08T20:51:16.533Z,101661.41
2023-01-08T20:53:43.604Z,101673.72
2023-01-08T20:56:15.188Z,101678.22
2023-01-08T20:58:45.064Z,101644.00
2023-01-08T21:01:18.384Z,101675.69
2023-01-08T21:03:46.154Z,101681.75
2023-01-08T21:06:16.362Z,101685.75
2023-01-08T21:08:44.847Z,101687.16
2023-01-08T21:11:13.640Z,101693.13
2023-01-08T21:13:41.174Z,101690.88
2023-01-08T21:16:22.690Z,101685.88
2023-01-08T21:18:50.559Z,101681.97
2023-01-08T21:21:28.785Z,101685.31
2023-01-08T21:23:56.828Z,101612.72
2023-01-08T21:26:24.429Z,101688.72
2023-01-08T21:28:51.493Z,101694.97
2023-01-08T21:31:21.314Z,101670.69
2023-01-08T21:33:49.977Z,101690.81
2023-01-08T21:36:22.789Z,101681.84
2023-01-08T21:38:50.251Z,101600.94
2023-01-08T21:41:40.698Z,101650.50
2023-01-08T21:44:40.274Z,101653.22
2023-01-08T21:47:10.366Z,101678.19
2023-01-08T21:49:46.969Z,101695.22
2023-01-08T21:52:33.436Z,101691.19
2023-01-08T21:55:01.761Z,101686.78
2023-01-08T21:57:37.484Z,101695.44
2023-01-08T22:00:05.290Z,101695.38
2023-01-08T22:02:32.897Z,101691.28
2023-01-08T22:04:59.893Z,101675.75
2023-01-08T22:07:26.881Z,101666.66
2023-01-08T22:09:54.181Z,101686.59
2023-01-08T22:12:22.991Z,101661.91
2023-01-08T22:14:55.443Z,101690.19
2023-01-08T22:17:29.359Z,101695.88
2023-01-08T22:19:58.083Z,101691.84
2023-01-08T22:22:25.134Z,101691.34
2023-01-08T22:24:52.497Z,101679.28
2023-01-08T22:27:19.632Z,101700.66
2023-01-08T22:29:48.285Z,101678.31
2023-01-08T22:32:15.329Z,101691.41
2023-01-08T22:34:42.482Z,101654.34
2023-01-08T22:37:11.744Z,101717.16
2023-01-08T22:39:39.987Z,101704.03
2023-01-08T22:42:06.957Z,101670.28
2023-01-08T22:44:34.123Z,101686.09
2023-01-08T22:47:02.824Z,101717.38
2023-01-08T22:49:29.971Z,101710.28
2023-01-08T22:51:58.801Z,101717.63
2023-01-08T22:54:25.901Z,101684.16
2023-01-08T22:56:52.895Z,101730.53
2023-01-08T22:59:21.439Z,101720.75
2023-01-08T23:01:49.581Z,101684.31
2023-01-08T23:04:17.109Z,101636.81
2023-01-08T23:06:44.179Z,101712.22
2023-01-08T23:09:11.505Z,101712.44
2023-01-08T23:11:38.461Z,101699.22
2023-01-08T23:14:07.927Z,101707.00
2023-01-08T23:16:35.322Z,101709.22
2023-01-08T23:19:02.319Z,101718.03
2023-01-08T23:21:29.355Z,101713.31
2023-01-08T23:23:56.673Z,101723.59
2023-01-08T23:26:26.956Z,101721.16
2023-01-08T23:28:55.875Z,101719.00
2023-01-08T23:31:26.410Z,101715.66
2023-01-08T23:33:54.130Z,101665.69
2023-01-08T23:36:22.114Z,101726.72
2023-01-08T23:38:51.948Z,101705.41
2023-01-08T23:41:20.713Z,101696.59
2023-01-08T23:43:49.343Z,101710.91
2023-01-08T23:46:16.953Z,101723.06
2023-01-08T23:48:43.958Z,101717.91
2023-01-08T23:51:11.039Z,101713.78
2023-01-08T23:53:38.028Z,101728.78
2023-01-08T23:56:05.452Z,101723.44
2023-01-08T23:58:32.534Z,101729.69
